Time;durP1;ratioP1;P1;durP2;ratioP2;P2;SDS_P1;SDS_P2;PMS_P1;PMS_P2;Temp;Humidity;BMP_temperature;BMP_pressure;BME280_temperature;BME280_humidity;BME280_pressure;Samples;Min_cycle;Max_cycle;Signal;HPM_P1;HPM_P2
2022/12/23 00:01:00;;;;;;;;;;;;;;;11.78;49.62;98631.78;5021856;28;20424;-45
2022/12/23 00:03:25;;;;;;;;;;;;;;;11.50;46.79;98647.59;5022883;28;19939;-45
2022/12/23 00:05:51;;;;;;;;;;;;;;;11.85;44.66;98686.56;5037676;28;20385;-46
2022/12/23 00:08:16;;;;;;;;;;;;;;;12.19;43.94;98724.69;5021846;28;19928;-45
2022/12/23 00:10:41;;;;;;;;;;;;;;;11.69;45.04;98707.81;5022370;28;20378;-46
2022/12/23 00:15:59;;;;;;;;;;;;;;;12.75;45.24;98741.19;5022346;28;19924;-45
2022/12/23 00:18:24;;;;;;;;;;;;;;;12.50;48.08;98682.06;5021706;28;19932;-45
2022/12/23 00:20:55;;;;;;;;;;;;;;;12.81;49.55;98647.03;5020721;28;19921;-46
2022/12/23 00:23:21;;;;;;;;;;;;;;;12.75;52.46;98614.59;5022889;28;20416;-45
2022/12/23 00:25:46;;;;;;;;;;;;;;;11.81;52.19;98582.63;5022314;28;19921;-45
2022/12/23 00:28:15;;;;;;;;;;;;;;;11.55;50.67;98621.63;5020698;28;19971;-45
2022/12/23 00:30:47;;;;;;;;;;;;;;;11.86;48.21;98663.28;5022401;28;20023;-46
2022/12/23 00:33:13;;;;;;;;;;;;;;;12.17;48.02;98664.53;5021738;28;20325;-45
2022/12/23 00:35:38;;;;;;;;;;;;;;;12.58;47.87;98682.53;5021951;28;19921;-45
2022/12/23 00:38:03;;;;;;;;;;;;;;;12.36;51.14;98641.31;5022577;28;20271;-46
2022/12/23 00:43:12;;;;;;;;;;;;;;;12.03;50.80;98626.44;5020201;28;20420;-45
2022/12/23 00:45:38;;;;;;;;;;;;;;;12.39;49.92;98645.53;5021474;28;19921;-45
2022/12/23 00:50:49;;;;;;;;;;;;;;;12.45;54.65;98604.78;5021172;28;20417;-45
2022/12/23 00:53:14;;;;;;;;;;;;;;;11.99;54.23;98581.03;5021804;28;19921;-45
2022/12/23 00:55:40;;;;;;;;;;;;;;;11.96;53.87;98596.66;5022208;28;19921;-45
2022/12/23 00:58:05;;;;;;;;;;;;;;;12.67;51.16;98634.78;5021920;28;19921;-45
2022/12/23 01:06:01;;;;;;;;;;;;;;;12.93;54.87;98595.63;5019646;28;20161;-46
2022/12/23 01:08:27;;;;;;;;;;;;;;;12.88;58.25;98570.91;5018414;28;20016;-48
2022/12/23 01:10:52;;;;;;;;;;;;;;;12.83;59.88;98553.03;5021442;28;20028;-47
2022/12/23 01:13:18;;;;;;;;;;;;;;;13.05;63.94;98546.81;5022172;28;19983;-44
2022/12/23 01:15:43;;;;;;;;;;;;;;;12.91;67.54;98509.56;5021562;28;19917;-45
2022/12/23 01:18:08;;;;;;;;;;;;;;;12.09;68.42;98473.88;5019511;28;19921;-46
2022/12/23 01:20:33;;;;;;;;;;;;;;;12.19;63.68;98507.03;5021393;28;20378;-45
2022/12/23 01:22:58;;;;;;;;;;;;;;;11.92;60.28;98536.59;5021633;28;20516;-45
2022/12/23 01:25:24;;;;;;;;;;;;;;;11.74;56.72;98568.31;5021243;28;20753;-45
2022/12/23 01:27:49;;;;;;;;;;;;;;;11.84;52.40;98607.47;5020920;28;20403;-46
2022/12/23 01:30:14;;;;;;;;;;;;;;;12.04;50.25;98656.53;5019877;28;20457;-45
2022/12/23 01:32:39;;;;;;;;;;;;;;;11.93;50.52;98659.56;5019397;28;20353;-45
2022/12/23 01:35:05;;;;;;;;;;;;;;;11.90;49.79;98656.25;5019413;28;20467;-44
2022/12/23 01:37:30;;;;;;;;;;;;;;;11.96;48.31;98674.06;5020434;28;20222;-46
2022/12/23 01:39:55;;;;;;;;;;;;;;;11.81;46.74;98690.16;5019499;28;19921;-46
2022/12/23 01:45:13;;;;;;;;;;;;;;;11.46;47.60;98715.66;5019161;28;20012;-45
2022/12/23 01:47:51;;;;;;;;;;;;;;;11.52;47.72;98747.22;5020572;28;19990;-45
2022/12/23 01:50:16;;;;;;;;;;;;;;;12.07;46.77;98787.19;5017645;28;20380;-45
2022/12/23 01:52:46;;;;;;;;;;;;;;;11.83;47.57;98786.41;5019839;28;19917;-45
2022/12/23 01:55:12;;;;;;;;;;;;;;;11.81;48.28;98783.88;5035104;28;19956;-45
2022/12/23 01:57:38;;;;;;;;;;;;;;;11.79;49.69;98780.53;5019239;28;19925;-45
2022/12/23 02:05:31;;;;;;;;;;;;;;;11.81;49.57;98803.69;5018607;28;20417;-45
2022/12/23 02:10:48;;;;;;;;;;;;;;;11.90;49.65;98808.50;5017441;28;19932;-45
2022/12/23 02:13:13;;;;;;;;;;;;;;;11.69;50.92;98805.84;5017139;28;19928;-45
2022/12/23 02:18:45;;;;;;;;;;;;;;;11.88;50.40;98833.53;5017767;28;19987;-45
2022/12/23 02:21:10;;;;;;;;;;;;;;;11.66;51.10;98836.94;5018236;28;19924;-45
2022/12/23 02:23:35;;;;;;;;;;;;;;;11.72;51.15;98851.31;5019847;28;20643;-44
2022/12/23 02:26:09;;;;;;;;;;;;;;;11.88;51.41;98872.22;5019456;28;19924;-45
2022/12/23 02:28:43;;;;;;;;;;;;;;;11.87;52.28;98896.34;5019257;28;19952;-45
2022/12/23 02:31:21;;;;;;;;;;;;;;;12.04;52.47;98908.59;5019449;28;19924;-46
2022/12/23 02:33:55;;;;;;;;;;;;;;;11.71;53.57;98893.50;5017563;28;19986;-49
2022/12/23 02:36:33;;;;;;;;;;;;;;;11.63;54.49;98919.59;5019644;28;20670;-46
2022/12/23 02:39:06;;;;;;;;;;;;;;;11.98;54.07;98956.16;5017559;28;19917;-46
2022/12/23 02:41:42;;;;;;;;;;;;;;;11.69;55.61;98946.91;5017687;28;20271;-46
2022/12/23 02:44:11;;;;;;;;;;;;;;;11.50;57.68;98963.06;5016828;28;20622;-46
2022/12/23 02:46:41;;;;;;;;;;;;;;;11.46;59.27;98989.84;5018449;28;19925;-47
2022/12/23 02:49:32;;;;;;;;;;;;;;;11.82;59.50;99040.16;5017242;28;19972;-46
2022/12/23 02:51:58;;;;;;;;;;;;;;;11.81;60.74;99059.13;5015173;28;20326;-46
2022/12/23 02:54:28;;;;;;;;;;;;;;;11.92;60.87;99069.91;5032578;28;20012;-46
2022/12/23 02:56:53;;;;;;;;;;;;;;;11.42;63.39;99045.00;5018044;28;19917;-47
2022/12/23 02:59:23;;;;;;;;;;;;;;;11.69;63.33;99079.28;5017345;28;19970;-47
2022/12/23 03:01:48;;;;;;;;;;;;;;;11.37;65.97;99089.88;5017926;28;20032;-48
2022/12/23 03:04:14;;;;;;;;;;;;;;;11.41;67.75;99119.84;5017612;28;20004;-47
2022/12/23 03:06:40;;;;;;;;;;;;;;;11.42;69.45;99140.41;5019522;28;19924;-46
2022/12/23 03:09:06;;;;;;;;;;;;;;;11.97;69.19;99196.22;5016838;28;19921;-48
2022/12/23 03:11:41;;;;;;;;;;;;;;;11.81;69.97;99172.66;5018826;28;20473;-48
2022/12/23 03:14:09;;;;;;;;;;;;;;;11.26;71.95;99137.47;5017517;28;19925;-46
2022/12/23 03:16:34;;;;;;;;;;;;;;;11.67;71.54;99175.69;5018749;28;19983;-46
2022/12/23 03:19:18;;;;;;;;;;;;;;;11.83;71.59;99200.06;5018147;28;19924;-46
2022/12/23 03:21:43;;;;;;;;;;;;;;;11.85;71.98;99198.28;5018152;28;19924;-45
2022/12/23 03:24:18;;;;;;;;;;;;;;;11.40;74.40;99185.19;5019249;28;19921;-45
2022/12/23 03:27:09;;;;;;;;;;;;;;;10.97;78.29;99217.44;5019516;28;19928;-46
2022/12/23 03:29:42;;;;;;;;;;;;;;;10.81;84.81;99274.63;5016576;28;19955;-46
2022/12/23 03:32:07;;;;;;;;;;;;;;;11.17;90.26;99349.16;5020798;28;19964;-46
2022/12/23 03:34:34;;;;;;;;;;;;;;;11.33;91.71;99384.81;5021198;28;20887;-46
2022/12/23 03:37:01;;;;;;;;;;;;;;;11.03;95.28;99398.53;5022521;28;19925;-48
2022/12/23 03:39:28;;;;;;;;;;;;;;;11.23;95.73;99426.31;5020961;28;20028;-46
2022/12/23 03:41:54;;;;;;;;;;;;;;;10.94;99.02;99434.00;5021433;28;19923;-46
2022/12/23 03:44:39;;;;;;;;;;;;;;;11.05;100.00;99463.75;5020055;28;20374;-46
2022/12/23 03:47:15;;;;;;;;;;;;;;;11.02;100.00;99488.78;5023071;28;19927;-46
2022/12/23 03:49:48;;;;;;;;;;;;;;;11.13;100.00;99528.00;5020041;28;20016;-46
2022/12/23 03:52:14;;;;;;;;;;;;;;;11.03;100.00;99536.84;5022022;28;19978;-47
2022/12/23 03:54:42;;;;;;;;;;;;;;;11.17;100.00;99570.84;5021001;28;20364;-45
2022/12/23 03:57:07;;;;;;;;;;;;;;;10.95;100.00;99564.53;5021169;28;19925;-46
2022/12/23 03:59:33;;;;;;;;;;;;;;;11.17;100.00;99616.41;5019708;28;19932;-47
2022/12/23 04:01:58;;;;;;;;;;;;;;;11.68;100.00;99654.69;5021225;28;20294;-46
2022/12/23 04:04:25;;;;;;;;;;;;;;;11.75;100.00;99608.94;5023055;28;19913;-46
2022/12/23 04:06:50;;;;;;;;;;;;;;;12.18;99.48;99592.25;5022622;28;20031;-47
2022/12/23 04:09:15;;;;;;;;;;;;;;;12.05;94.89;99533.22;5021153;28;20039;-46
2022/12/23 04:11:40;;;;;;;;;;;;;;;11.93;92.93;99469.06;5021358;28;19917;-46
2022/12/23 04:14:06;;;;;;;;;;;;;;;11.58;90.78;99421.06;5022025;28;20019;-45
2022/12/23 04:16:31;;;;;;;;;;;;;;;11.72;88.81;99414.59;5020735;28;20054;-46
2022/12/23 04:18:56;;;;;;;;;;;;;;;11.84;85.80;99404.81;5020269;28;20402;-48
2022/12/23 04:21:22;;;;;;;;;;;;;;;12.34;80.18;99389.47;5022052;28;20429;-47
2022/12/23 04:23:47;;;;;;;;;;;;;;;12.40;73.21;99334.19;5022112;28;20431;-45
2022/12/23 04:26:12;;;;;;;;;;;;;;;12.03;73.91;99266.53;5022233;28;20004;-46
2022/12/23 04:28:37;;;;;;;;;;;;;;;12.48;69.90;99275.34;5021039;28;19990;-45
2022/12/23 04:31:03;;;;;;;;;;;;;;;12.54;66.97;99250.16;5021956;28;19952;-47
2022/12/23 04:33:28;;;;;;;;;;;;;;;12.23;66.56;99221.16;5020569;28;19963;-46
2022/12/23 04:35:53;;;;;;;;;;;;;;;11.86;65.96;99166.44;5022261;28;19917;-46
2022/12/23 04:38:18;;;;;;;;;;;;;;;11.63;68.29;99146.59;5021099;28;19970;-46
2022/12/23 04:40:44;;;;;;;;;;;;;;;11.67;68.48;99168.78;5021174;28;19924;-46
2022/12/23 04:43:09;;;;;;;;;;;;;;;11.70;69.10;99196.25;5019588;28;21375;-46
2022/12/23 04:45:35;;;;;;;;;;;;;;;12.24;68.75;99240.88;5019989;28;19924;-45
2022/12/23 04:48:00;;;;;;;;;;;;;;;11.95;68.08;99204.03;5021479;28;20150;-46
2022/12/23 04:50:25;;;;;;;;;;;;;;;11.80;67.83;99194.19;5020056;28;20000;-45
2022/12/23 04:52:50;;;;;;;;;;;;;;;12.10;68.44;99229.28;5021078;28;19933;-45
2022/12/23 04:55:16;;;;;;;;;;;;;;;12.26;64.11;99231.34;5020918;28;19928;-45
2022/12/23 04:57:41;;;;;;;;;;;;;;;11.73;64.87;99168.59;5021410;28;19928;-46
2022/12/23 05:00:06;;;;;;;;;;;;;;;11.76;65.58;99180.53;5020140;28;19972;-46
2022/12/23 05:02:32;;;;;;;;;;;;;;;12.02;65.21;99204.63;5021156;28;20306;-45
2022/12/23 05:04:57;;;;;;;;;;;;;;;11.43;67.61;99161.91;5020912;28;19921;-47
2022/12/23 05:07:22;;;;;;;;;;;;;;;11.72;66.72;99195.31;5021903;28;19917;-45
2022/12/23 05:09:47;;;;;;;;;;;;;;;11.93;68.38;99222.16;5018585;28;20496;-46
2022/12/23 05:12:12;;;;;;;;;;;;;;;11.78;70.64;99237.28;5021290;28;21034;-45
2022/12/23 05:14:38;;;;;;;;;;;;;;;11.96;68.54;99261.66;5020903;28;20323;-45
2022/12/23 05:17:04;;;;;;;;;;;;;;;12.25;66.03;99265.84;5020891;28;20262;-46
2022/12/23 05:19:29;;;;;;;;;;;;;;;12.12;66.82;99252.50;5019278;28;19925;-45
2022/12/23 05:21:54;;;;;;;;;;;;;;;12.20;64.30;99249.63;5019853;28;19968;-46
2022/12/23 05:24:19;;;;;;;;;;;;;;;12.02;62.81;99204.63;5018890;28;19920;-45
2022/12/23 05:26:48;;;;;;;;;;;;;;;12.21;62.09;99212.59;5017783;28;19987;-46
2022/12/23 05:29:14;;;;;;;;;;;;;;;12.09;61.09;99200.97;5020522;28;19928;-46
2022/12/23 05:31:39;;;;;;;;;;;;;;;11.85;62.62;99184.56;5021966;28;19923;-46
2022/12/23 05:34:04;;;;;;;;;;;;;;;11.86;63.94;99188.81;5021907;28;19928;-46
2022/12/23 05:36:29;;;;;;;;;;;;;;;11.19;69.57;99181.56;5021742;28;20023;-45
2022/12/23 05:38:56;;;;;;;;;;;;;;;11.30;71.92;99239.63;5021471;28;20003;-46
2022/12/23 05:41:21;;;;;;;;;;;;;;;11.02;77.84;99272.31;5021767;28;19947;-46
2022/12/23 05:43:46;;;;;;;;;;;;;;;11.18;81.61;99327.66;5020243;28;19921;-46
2022/12/23 05:46:12;;;;;;;;;;;;;;;11.72;82.74;99391.38;5017985;28;19921;-46
2022/12/23 05:48:37;;;;;;;;;;;;;;;11.50;82.25;99367.13;5036044;28;19933;-46
2022/12/23 05:51:02;;;;;;;;;;;;;;;11.16;83.33;99352.63;5018449;28;19916;-45
2022/12/23 05:53:27;;;;;;;;;;;;;;;11.60;84.39;99398.63;5015634;28;19996;-46
2022/12/23 05:55:53;;;;;;;;;;;;;;;11.86;83.98;99405.56;5016440;28;20795;-46
2022/12/23 05:58:18;;;;;;;;;;;;;;;11.54;82.99;99361.00;5020476;28;20442;-46
2022/12/23 06:00:43;;;;;;;;;;;;;;;11.52;83.94;99357.59;5020479;28;20492;-47
2022/12/23 06:03:09;;;;;;;;;;;;;;;11.37;84.23;99370.94;5020994;28;19935;-46
2022/12/23 06:05:36;;;;;;;;;;;;;;;11.74;85.47;99401.63;5019364;28;19970;-46
2022/12/23 06:08:02;;;;;;;;;;;;;;;11.26;86.14;99387.56;5019896;28;19964;-46
2022/12/23 06:10:27;;;;;;;;;;;;;;;11.25;87.42;99392.78;5020183;28;20003;-46
2022/12/23 06:12:52;;;;;;;;;;;;;;;11.43;85.75;99417.19;5020145;28;19979;-46
2022/12/23 06:15:17;;;;;;;;;;;;;;;10.98;89.44;99399.53;5020064;28;19968;-46
2022/12/23 06:17:43;;;;;;;;;;;;;;;11.41;90.26;99460.22;5020062;28;19967;-45
2022/12/23 06:20:09;;;;;;;;;;;;;;;11.51;91.76;99488.28;5020085;28;20405;-45
2022/12/23 06:22:34;;;;;;;;;;;;;;;11.45;93.52;99485.06;5020842;28;19921;-45
2022/12/23 06:24:59;;;;;;;;;;;;;;;11.48;94.37;99510.75;5020680;28;19972;-45
2022/12/23 06:27:25;;;;;;;;;;;;;;;11.25;93.05;99503.63;5020428;28;19967;-46
2022/12/23 06:29:50;;;;;;;;;;;;;;;11.65;93.61;99531.75;5020069;28;20048;-45
2022/12/23 06:32:15;;;;;;;;;;;;;;;11.39;92.03;99495.53;5019798;28;20524;-45
2022/12/23 06:34:40;;;;;;;;;;;;;;;11.22;92.72;99476.22;5019318;28;20590;-45
2022/12/23 06:37:05;;;;;;;;;;;;;;;11.51;92.28;99513.25;5020410;28;20434;-45
2022/12/23 06:39:31;;;;;;;;;;;;;;;11.48;91.16;99506.44;5019489;28;19971;-45
2022/12/23 06:41:56;;;;;;;;;;;;;;;11.39;90.81;99500.69;5020026;28;19937;-46
2022/12/23 06:44:21;;;;;;;;;;;;;;;11.51;93.48;99518.41;5018690;28;19928;-45
2022/12/23 06:46:46;;;;;;;;;;;;;;;11.34;91.53;99497.41;5020128;28;19924;-45
2022/12/23 06:49:11;;;;;;;;;;;;;;;11.79;89.00;99508.16;5018844;28;20009;-45
2022/12/23 06:51:37;;;;;;;;;;;;;;;11.72;87.60;99480.81;5019565;28;19995;-45
2022/12/23 06:54:02;;;;;;;;;;;;;;;11.70;84.33;99452.50;5020569;28;20590;-45
2022/12/23 06:56:27;;;;;;;;;;;;;;;11.69;82.10;99424.16;5018809;28;19917;-45
2022/12/23 06:58:53;;;;;;;;;;;;;;;11.52;79.89;99396.28;5018982;28;19921;-45
2022/12/23 07:01:18;;;;;;;;;;;;;;;11.78;79.03;99407.56;5019775;28;19956;-45
2022/12/23 07:03:43;;;;;;;;;;;;;;;11.26;79.96;99369.50;5020062;28;19917;-46
2022/12/23 07:06:09;;;;;;;;;;;;;;;11.57;80.72;99403.91;5018167;28;20590;-47
2022/12/23 07:08:34;;;;;;;;;;;;;;;11.32;81.37;99398.59;5018360;28;19932;-45
2022/12/23 07:11:00;;;;;;;;;;;;;;;11.60;83.60;99435.59;5019902;28;20020;-45
2022/12/23 07:13:25;;;;;;;;;;;;;;;11.61;82.21;99432.13;5020073;28;20527;-46
2022/12/23 07:15:50;;;;;;;;;;;;;;;11.88;80.50;99445.13;5017463;28;20023;-46
2022/12/23 07:18:16;;;;;;;;;;;;;;;11.02;82.17;99368.50;5016961;28;19917;-46
2022/12/23 07:20:41;;;;;;;;;;;;;;;11.73;82.25;99436.91;5018865;28;20007;-45
2022/12/23 07:23:06;;;;;;;;;;;;;;;11.50;80.42;99421.28;5018168;28;19960;-45
2022/12/23 07:25:31;;;;;;;;;;;;;;;11.73;81.41;99441.25;5018728;28;19959;-45
2022/12/23 07:27:57;;;;;;;;;;;;;;;11.71;80.96;99430.97;5019138;28;20499;-45
2022/12/23 07:30:22;;;;;;;;;;;;;;;11.35;80.84;99401.94;5017702;28;20392;-45
2022/12/23 07:32:48;;;;;;;;;;;;;;;11.79;79.68;99441.06;5018975;28;20270;-46
2022/12/23 07:35:13;;;;;;;;;;;;;;;11.30;81.79;99402.06;5019298;28;19924;-46
2022/12/23 07:37:38;;;;;;;;;;;;;;;11.75;79.76;99438.63;5019505;28;19917;-45
2022/12/23 07:40:04;;;;;;;;;;;;;;;11.45;79.33;99412.84;5017480;28;20436;-45
2022/12/23 07:42:29;;;;;;;;;;;;;;;11.12;83.60;99412.88;5017723;28;19927;-47
2022/12/23 07:44:54;;;;;;;;;;;;;;;11.06;86.28;99454.28;5015562;28;19928;-46
2022/12/23 07:47:19;;;;;;;;;;;;;;;11.35;88.46;99511.97;5018471;28;19925;-46
2022/12/23 07:49:44;;;;;;;;;;;;;;;11.20;91.38;99524.38;5016868;28;19971;-46
2022/12/23 07:52:10;;;;;;;;;;;;;;;11.30;91.18;99561.91;5017051;28;19951;-45
2022/12/23 07:54:35;;;;;;;;;;;;;;;11.12;92.84;99557.25;5017775;28;20532;-45
2022/12/23 07:57:00;;;;;;;;;;;;;;;11.50;92.33;99600.09;5018362;28;20091;-46
2022/12/23 07:59:26;;;;;;;;;;;;;;;11.43;92.04;99598.56;5016185;28;19940;-46
2022/12/23 08:01:51;;;;;;;;;;;;;;;11.70;91.60;99621.97;5017333;28;20055;-46
2022/12/23 08:04:16;;;;;;;;;;;;;;;11.30;89.91;99574.81;5017792;28;19917;-46
2022/12/23 08:06:42;;;;;;;;;;;;;;;11.07;91.59;99561.66;5016204;28;19932;-45
2022/12/23 08:09:08;;;;;;;;;;;;;;;11.39;92.54;99601.25;5015117;28;20626;-46
2022/12/23 08:11:33;;;;;;;;;;;;;;;11.98;90.62;99629.81;5016961;28;20090;-46
2022/12/23 08:13:58;;;;;;;;;;;;;;;12.13;85.88;99600.13;5017335;28;19929;-45
2022/12/23 08:16:24;;;;;;;;;;;;;;;12.00;81.16;99531.69;5017497;28;19960;-46
2022/12/23 08:18:49;;;;;;;;;;;;;;;11.89;79.64;99495.88;5019838;28;20309;-57
2022/12/23 08:21:17;;;;;;;;;;;;;;;11.66;79.18;99466.38;5021719;28;19928;-57
2022/12/23 08:23:43;;;;;;;;;;;;;;;11.75;74.63;99443.78;5020501;28;20401;-57
2022/12/23 08:26:12;;;;;;;;;;;;;;;11.87;74.08;99446.00;5021978;28;19921;-58
2022/12/23 08:28:37;;;;;;;;;;;;;;;11.90;69.54;99417.53;5020929;28;19972;-57
2022/12/23 08:31:13;;;;;;;;;;;;;;;11.92;70.16;99401.09;5017852;28;20452;-58
2022/12/23 08:33:39;;;;;;;;;;;;;;;12.73;59.71;99405.38;5019477;28;19917;-58
2022/12/23 08:36:05;;;;;;;;;;;;;;;11.84;60.67;99280.94;5036260;28;19921;-58
2022/12/23 08:38:30;;;;;;;;;;;;;;;12.02;61.05;99280.38;5017844;28;20043;-57
2022/12/23 08:40:56;;;;;;;;;;;;;;;11.77;61.36;99267.38;5020847;28;20455;-58
2022/12/23 08:43:21;;;;;;;;;;;;;;;11.91;58.94;99283.28;5020908;28;20087;-58
2022/12/23 08:45:46;;;;;;;;;;;;;;;11.75;61.15;99284.66;5021423;28;20290;-58
2022/12/23 08:48:12;;;;;;;;;;;;;;;11.47;63.79;99276.94;5020261;28;19952;-57
2022/12/23 08:50:38;;;;;;;;;;;;;;;11.66;62.33;99305.59;5020107;28;19946;-57
2022/12/23 08:53:03;;;;;;;;;;;;;;;11.39;66.23;99299.56;5020867;28;20574;-57
2022/12/23 08:55:28;;;;;;;;;;;;;;;11.66;64.92;99334.81;5020022;28;20325;-57
2022/12/23 08:57:54;;;;;;;;;;;;;;;11.72;65.48;99341.50;5019379;28;19921;-58
2022/12/23 09:00:19;;;;;;;;;;;;;;;11.26;66.49;99311.97;5019893;28;19928;-57
2022/12/23 09:02:44;;;;;;;;;;;;;;;11.70;64.53;99341.56;5021163;28;19917;-57
2022/12/23 09:05:09;;;;;;;;;;;;;;;11.72;65.52;99332.03;5020409;28;20460;-57
2022/12/23 09:07:34;;;;;;;;;;;;;;;11.59;64.12;99320.41;5019309;28;20361;-58
2022/12/23 09:10:00;;;;;;;;;;;;;;;12.11;61.07;99339.44;5020470;28;20016;-58
2022/12/23 09:12:25;;;;;;;;;;;;;;;12.05;57.81;99306.06;5020526;28;20023;-57
2022/12/23 09:14:50;;;;;;;;;;;;;;;12.04;56.15;99281.16;5020696;28;19964;-57
2022/12/23 09:17:16;;;;;;;;;;;;;;;11.86;57.46;99259.34;5020835;28;20018;-56
2022/12/23 09:19:41;;;;;;;;;;;;;;;11.47;57.50;99248.56;5020540;28;19921;-57
2022/12/23 09:22:07;;;;;;;;;;;;;;;11.60;59.31;99265.34;5018269;28;19921;-57
2022/12/23 09:24:32;;;;;;;;;;;;;;;12.07;55.88;99298.28;5020674;28;20663;-58
2022/12/23 09:26:57;;;;;;;;;;;;;;;11.96;54.86;99266.81;5019688;28;19921;-58
2022/12/23 09:29:22;;;;;;;;;;;;;;;11.95;53.60;99250.50;5019193;28;19932;-58
2022/12/23 09:31:48;;;;;;;;;;;;;;;11.93;52.21;99237.63;5018319;28;19928;-57
2022/12/23 09:34:13;;;;;;;;;;;;;;;11.76;53.18;99215.81;5020390;28;19925;-57
2022/12/23 09:36:38;;;;;;;;;;;;;;;11.92;51.63;99215.28;5020063;28;20428;-57
2022/12/23 09:39:03;;;;;;;;;;;;;;;12.14;50.44;99217.97;5019874;28;20449;-57
2022/12/23 09:41:49;;;;;;;;;;;;;;;12.22;49.04;99207.38;5019433;28;19925;-58
2022/12/23 09:44:34;;;;;;;;;;;;;;;12.08;48.35;99166.56;5018163;28;19932;-58
2022/12/23 09:47:00;;;;;;;;;;;;;;;12.11;47.95;99157.84;5019383;28;19923;-58
2022/12/23 09:49:25;;;;;;;;;;;;;;;12.32;46.93;99166.59;5017640;28;19925;-57
2022/12/23 09:51:52;;;;;;;;;;;;;;;12.84;43.12;99171.53;5019169;28;20354;-58
2022/12/23 09:54:18;;;;;;;;;;;;;;;12.72;41.64;99131.50;5015224;28;20267;-58
2022/12/23 09:57:02;;;;;;;;;;;;;;;12.33;44.38;99072.72;5019375;28;19933;-58
2022/12/23 09:59:27;;;;;;;;;;;;;;;12.31;44.41;99051.25;5015775;28;20674;-58
2022/12/23 10:02:11;;;;;;;;;;;;;;;12.28;43.29;99046.22;5014219;28;20011;-58
2022/12/23 10:04:38;;;;;;;;;;;;;;;12.28;44.52;99041.06;5017429;28;20405;-57
2022/12/23 10:07:04;;;;;;;;;;;;;;;12.44;43.07;99042.16;5018298;28;20400;-58
2022/12/23 10:09:33;;;;;;;;;;;;;;;12.24;43.71;99013.66;5016989;28;20020;-58
2022/12/23 10:11:58;;;;;;;;;;;;;;;11.87;45.34;98999.56;5017607;28;20008;-58
2022/12/23 10:14:24;;;;;;;;;;;;;;;12.98;40.59;99043.44;5019438;28;19927;-58
2022/12/23 10:16:50;;;;;;;;;;;;;;;12.43;43.94;98975.91;5017588;28;19983;-58
2022/12/23 10:19:23;;;;;;;;;;;;;;;12.84;44.17;98968.22;5016501;28;20339;-58
2022/12/23 10:21:53;;;;;;;;;;;;;;;12.88;47.44;98915.47;5019308;28;19974;-58
2022/12/23 10:24:23;;;;;;;;;;;;;;;13.19;48.87;98896.03;5017275;28;20747;-58
2022/12/23 10:26:55;;;;;;;;;;;;;;;12.91;51.32;98853.31;5019045;28;20385;-58
2022/12/23 10:29:21;;;;;;;;;;;;;;;13.30;51.35;98842.13;5018958;28;20305;-57
2022/12/23 10:32:02;;;;;;;;;;;;;;;13.60;53.31;98818.34;5017452;28;19924;-58
2022/12/23 10:34:27;;;;;;;;;;;;;;;13.45;57.58;98764.72;5018369;28;20769;-58
2022/12/23 10:36:58;;;;;;;;;;;;;;;13.50;60.76;98737.72;5017148;28;19917;-58
2022/12/23 10:39:30;;;;;;;;;;;;;;;13.57;65.08;98709.78;5017384;28;19944;-58
2022/12/23 10:42:07;;;;;;;;;;;;;;;13.42;67.20;98682.09;5033910;28;19921;-58
2022/12/23 10:44:40;;;;;;;;;;;;;;;13.32;69.71;98659.28;5017675;28;19921;-58
2022/12/23 10:47:27;;;;;;;;;;;;;;;13.58;69.06;98659.72;5017668;28;19917;-58
2022/12/23 10:49:53;;;;;;;;;;;;;;;13.77;70.86;98641.53;5015983;28;19925;-58
2022/12/23 10:52:19;;;;;;;;;;;;;;;13.69;72.96;98626.41;5019303;28;19987;-57
2022/12/23 10:54:45;;;;;;;;;;;;;;;13.59;75.26;98599.28;5015965;28;20339;-58
2022/12/23 10:57:11;;;;;;;;;;;;;;;13.60;75.33;98588.88;5017810;28;19921;-58
2022/12/23 10:59:36;;;;;;;;;;;;;;;13.87;76.71;98577.19;5017209;28;20271;-58
2022/12/23 11:02:04;;;;;;;;;;;;;;;13.83;78.30;98560.16;5018075;28;19947;-58
2022/12/23 11:04:31;;;;;;;;;;;;;;;13.38;82.69;98529.63;5017094;28;19928;-58
2022/12/23 11:06:56;;;;;;;;;;;;;;;13.40;80.19;98532.16;5019211;28;19998;-58
2022/12/23 11:09:23;;;;;;;;;;;;;;;13.53;81.43;98514.25;5016960;28;19962;-58
2022/12/23 11:11:55;;;;;;;;;;;;;;;13.52;82.91;98500.47;5007161;28;19927;-58
2022/12/23 11:14:38;;;;;;;;;;;;;;;13.85;82.87;98491.84;5015460;28;19928;-58
2022/12/23 11:17:04;;;;;;;;;;;;;;;14.01;84.69;98471.97;5017024;28;19927;-58
2022/12/23 11:19:30;;;;;;;;;;;;;;;13.89;90.42;98445.91;5017130;28;19921;-58
2022/12/23 11:21:56;;;;;;;;;;;;;;;13.91;91.34;98441.50;5018227;28;20012;-58
2022/12/23 11:24:21;;;;;;;;;;;;;;;13.37;93.54;98413.34;5019043;28;19924;-58
2022/12/23 11:27:07;;;;;;;;;;;;;;;13.51;90.04;98436.72;5017735;28;19939;-58
2022/12/23 11:29:33;;;;;;;;;;;;;;;13.52;88.17;98447.91;5017247;28;19928;-58
2022/12/23 11:31:58;;;;;;;;;;;;;;;13.43;87.11;98445.78;5016461;28;20370;-57
2022/12/23 11:34:24;;;;;;;;;;;;;;;13.07;87.79;98451.91;5017881;28;19929;-58
2022/12/23 11:36:56;;;;;;;;;;;;;;;13.19;83.34;98483.16;5015770;28;20450;-58
2022/12/23 11:39:23;;;;;;;;;;;;;;;13.21;83.35;98480.50;5015600;28;20295;-58
2022/12/23 11:41:50;;;;;;;;;;;;;;;13.35;83.78;98480.66;5017697;28;19925;-58
2022/12/23 11:44:18;;;;;;;;;;;;;;;12.87;84.36;98465.88;5016948;28;19921;-58
2022/12/23 11:46:43;;;;;;;;;;;;;;;12.86;80.47;98490.84;5017452;28;19967;-58
2022/12/23 11:49:22;;;;;;;;;;;;;;;13.33;78.24;98510.09;5016844;28;19947;-58
2022/12/23 11:51:58;;;;;;;;;;;;;;;13.36;79.08;98505.63;5018798;28;19913;-58
2022/12/23 11:54:23;;;;;;;;;;;;;;;13.68;81.52;98484.97;5022036;28;19928;-57
2022/12/23 11:56:50;;;;;;;;;;;;;;;13.56;84.19;98444.25;5021092;28;19925;-58
2022/12/23 11:59:21;;;;;;;;;;;;;;;12.85;87.81;98411.66;5018128;28;19972;-58
2022/12/23 12:01:46;;;;;;;;;;;;;;;13.56;83.16;98444.25;5022469;28;19949;-58
2022/12/23 12:04:15;;;;;;;;;;;;;;;13.51;84.77;98441.06;5020864;28;19916;-57
2022/12/23 12:06:41;;;;;;;;;;;;;;;13.39;87.25;98433.03;5018706;28;19964;-58
2022/12/23 12:09:06;;;;;;;;;;;;;;;13.78;86.28;98412.88;5020058;28;19991;-58
2022/12/23 12:11:35;;;;;;;;;;;;;;;13.32;88.44;98379.97;5019973;28;19975;-58
2022/12/23 12:14:01;;;;;;;;;;;;;;;13.59;85.58;98400.94;5018939;28;19929;-58
2022/12/23 12:16:29;;;;;;;;;;;;;;;13.89;86.54;98396.75;5019822;28;19967;-57
2022/12/23 12:18:54;;;;;;;;;;;;;;;13.79;87.61;98381.72;5018559;28;19933;-58
2022/12/23 12:21:21;;;;;;;;;;;;;;;13.74;89.17;98375.97;5020429;28;19925;-58
2022/12/23 12:23:47;;;;;;;;;;;;;;;13.38;90.85;98352.94;5020250;28;20836;-58
2022/12/23 12:26:16;;;;;;;;;;;;;;;13.78;89.03;98363.72;5020684;28;19924;-58
2022/12/23 12:28:42;;;;;;;;;;;;;;;13.75;89.90;98356.94;5021291;28;19921;-58
2022/12/23 12:31:10;;;;;;;;;;;;;;;13.59;90.80;98340.56;5020996;28;19948;-58
2022/12/23 12:33:40;;;;;;;;;;;;;;;13.67;90.98;98328.06;5021378;28;19964;-57
2022/12/23 12:36:14;;;;;;;;;;;;;;;12.88;93.85;98297.78;5019940;28;19920;-58
2022/12/23 12:38:39;;;;;;;;;;;;;;;13.24;87.52;98335.53;5019340;28;19917;-58
2022/12/23 12:41:13;;;;;;;;;;;;;;;13.37;87.65;98351.28;5021095;28;19921;-57
2022/12/23 12:43:43;;;;;;;;;;;;;;;13.34;87.00;98347.09;5020527;28;20023;-57
2022/12/23 12:46:09;;;;;;;;;;;;;;;13.24;87.67;98337.28;5022167;28;19958;-57
2022/12/23 12:48:37;;;;;;;;;;;;;;;12.98;86.38;98334.34;5020887;28;19929;-57
2022/12/23 12:51:18;;;;;;;;;;;;;;;13.00;85.65;98347.16;5021943;28;19948;-58
2022/12/23 12:53:55;;;;;;;;;;;;;;;13.03;85.67;98336.69;5021853;28;19917;-58
2022/12/23 12:56:24;;;;;;;;;;;;;;;12.75;86.01;98307.13;5020330;28;19925;-58
2022/12/23 12:58:50;;;;;;;;;;;;;;;13.08;83.87;98320.00;5019092;28;20024;-58
2022/12/23 13:01:18;;;;;;;;;;;;;;;13.29;83.19;98332.75;5021109;28;20236;-58
2022/12/23 13:03:48;;;;;;;;;;;;;;;13.13;87.28;98301.66;5021724;28;19979;-58
2022/12/23 13:06:20;;;;;;;;;;;;;;;13.72;84.82;98318.28;5019888;28;19927;-58
2022/12/23 13:09:00;;;;;;;;;;;;;;;13.94;88.55;98286.03;5016849;28;19921;-58
2022/12/23 13:11:34;;;;;;;;;;;;;;;12.70;97.38;98210.91;5021095;28;19928;-58
2022/12/23 13:14:04;;;;;;;;;;;;;;;12.47;91.28;98225.88;5020669;28;19921;-58